Seattle, Washington
Traffic Map
Current Weather Conditions
Seattle, Washington
Broken Clouds
Broken Clouds
70°
Feels Like: 70°
Wind Chill: 70° Ceiling: 7000
Heat Index: 70° Visibility: 10mi
Dew Point: 52° Wind: 14mph
Humidity: 53% Direction: 220° (SW)
Pressure: 29.83in Gusts: 21mph
Raw Report DataKBFI 022153Z 22012G18KT 10SM FEW048 BKN070 BKN095 21/11 A2983 RMK AO2 RAE49 SLP102 P0000 T02110111
Traffic Incident Summary
Active as of:
Severity:
Category:
InformationThere was an issue retrieving the traffic information for this location. Please try a different location or try again shortly.
Advertisements
Track Severe Weather on mobile